createdAt,value
2019-05-06T00:00:14.405Z,4.33
2019-05-06T00:02:43.579Z,4.25
2019-05-06T00:05:11.396Z,3.95
2019-05-06T00:07:39.348Z,4.53
2019-05-06T00:10:10.211Z,5.67
2019-05-06T00:12:37.787Z,4.17
2019-05-06T00:15:05.868Z,4.60
2019-05-06T00:17:34.910Z,6.05
2019-05-06T00:20:04.232Z,4.53
2019-05-06T00:22:34.267Z,3.37
2019-05-06T00:25:01.248Z,5.67
2019-05-06T00:27:28.824Z,4.05
2019-05-06T00:29:56.438Z,4.75
2019-05-06T00:32:24.388Z,3.50
2019-05-06T00:34:54.475Z,3.22
2019-05-06T00:37:21.350Z,4.55
2019-05-06T00:39:48.962Z,5.30
2019-05-06T00:42:16.897Z,3.87
2019-05-06T00:44:44.512Z,3.60
2019-05-06T00:47:13.546Z,4.03
2019-05-06T00:49:43.503Z,3.55
2019-05-06T00:52:10.596Z,3.20
2019-05-06T00:54:38.208Z,7.03
2019-05-06T00:57:05.796Z,5.67
2019-05-06T00:59:34.538Z,6.80
2019-05-06T01:02:04.462Z,3.75
2019-05-06T01:04:33.731Z,5.67
2019-05-06T01:07:00.797Z,5.47
2019-05-06T01:09:28.418Z,4.00
2019-05-06T01:11:56.142Z,3.45
2019-05-06T01:14:23.750Z,5.97
2019-05-06T01:16:51.334Z,3.70
2019-05-06T01:19:19.292Z,3.52
2019-05-06T01:21:46.904Z,4.85
2019-05-06T01:24:14.761Z,5.87
2019-05-06T01:26:44.355Z,4.58
2019-05-06T01:29:12.075Z,5.50
2019-05-06T01:31:43.285Z,4.85
2019-05-06T01:34:09.284Z,6.47
2019-05-06T01:36:37.020Z,6.62
2019-05-06T01:39:05.939Z,6.40
2019-05-06T01:41:33.963Z,5.00
2019-05-06T01:44:01.551Z,6.03
2019-05-06T01:46:29.159Z,5.45
2019-05-06T01:48:56.737Z,4.90
2019-05-06T01:51:24.348Z,5.75
2019-05-06T01:53:54.165Z,4.12
2019-05-06T01:56:21.215Z,4.92
2019-05-06T01:58:49.180Z,4.17
2019-05-06T02:01:17.110Z,4.72
2019-05-06T02:03:44.688Z,4.17
2019-05-06T02:06:14.045Z,5.17
2019-05-06T02:08:41.539Z,5.15
2019-05-06T02:11:09.493Z,6.12
2019-05-06T02:13:37.509Z,5.90
2019-05-06T02:16:05.434Z,6.03
2019-05-06T02:18:33.983Z,6.70
2019-05-06T02:21:01.986Z,6.40
2019-05-06T02:23:29.857Z,5.17
2019-05-06T02:25:57.836Z,5.97
2019-05-06T02:28:25.412Z,4.47
2019-05-06T02:30:54.833Z,5.97
2019-05-06T02:33:24.616Z,6.03
2019-05-06T02:35:54.896Z,4.08
2019-05-06T02:38:23.381Z,5.15
2019-05-06T02:40:53.403Z,5.05
2019-05-06T02:43:22.885Z,9.30
2019-05-06T02:45:48.953Z,6.22
2019-05-06T02:48:16.543Z,4.12
2019-05-06T02:50:44.159Z,3.72
2019-05-06T02:53:13.303Z,6.12
2019-05-06T02:55:43.034Z,5.62
2019-05-06T02:58:10.701Z,6.22
2019-05-06T03:00:38.310Z,9.10
2019-05-06T03:03:05.938Z,4.90
2019-05-06T03:05:33.532Z,3.87
2019-05-06T03:08:03.264Z,7.97
2019-05-06T03:10:32.927Z,4.67
2019-05-06T03:13:02.829Z,5.00
2019-05-06T03:15:29.546Z,6.78
2019-05-06T03:17:57.171Z,5.62
2019-05-06T03:20:43.940Z,5.60
2019-05-06T03:23:13.966Z,6.95
2019-05-06T03:25:40.164Z,5.95
2019-05-06T03:28:08.125Z,7.42
2019-05-06T03:30:36.578Z,8.15
2019-05-06T03:35:50.189Z,5.95
2019-05-06T03:38:03.856Z,5.47
2019-05-06T03:40:36.109Z,6.08
2019-05-06T03:43:02.799Z,5.03
2019-05-06T03:45:33.447Z,7.17
2019-05-06T03:48:05.355Z,7.15
2019-05-06T03:50:33.656Z,6.25
2019-05-06T03:52:59.854Z,4.83
2019-05-06T03:55:27.442Z,7.20
2019-05-06T03:57:55.628Z,4.53
2019-05-06T04:00:23.838Z,9.83
2019-05-06T04:02:53.674Z,6.30
2019-05-06T04:05:23.717Z,7.03
2019-05-06T04:07:52.786Z,5.40
2019-05-06T04:10:19.535Z,8.40
2019-05-06T04:12:47.147Z,6.10
2019-05-06T04:15:14.850Z,6.85
2019-05-06T04:17:47.148Z,5.15
2019-05-06T04:20:16.205Z,6.10
2019-05-06T04:22:44.144Z,5.40
2019-05-06T04:25:13.977Z,9.38
2019-05-06T04:27:42.983Z,6.22
2019-05-06T04:30:13.175Z,6.37
2019-05-06T04:32:43.164Z,7.92
2019-05-06T04:35:09.877Z,6.00
2019-05-06T04:37:37.509Z,4.55
2019-05-06T04:40:06.526Z,5.90
2019-05-06T04:42:37.029Z,6.40
2019-05-06T04:45:05.150Z,6.40
2019-05-06T04:47:34.358Z,7.37
2019-05-06T04:50:06.913Z,6.40
2019-05-06T04:52:37.348Z,8.38
2019-05-06T04:55:05.391Z,10.45
2019-05-06T04:57:33.581Z,6.75
2019-05-06T05:00:04.095Z,7.12
2019-05-06T05:02:33.638Z,7.22
2019-05-06T05:05:03.809Z,7.47
2019-05-06T05:07:33.383Z,10.75
2019-05-06T05:10:03.472Z,6.67
2019-05-06T05:12:33.442Z,6.50
2019-05-06T05:15:00.175Z,9.55
2019-05-06T05:17:27.765Z,6.90
2019-05-06T05:19:55.662Z,7.97
2019-05-06T05:22:23.426Z,8.08
2019-05-06T05:24:52.119Z,4.70
2019-05-06T05:27:21.458Z,6.28
2019-05-06T05:29:49.586Z,5.70
2019-05-06T05:32:17.307Z,5.08
2019-05-06T05:34:44.917Z,5.47
2019-05-06T05:37:13.021Z,5.75
2019-05-06T05:39:42.464Z,6.00
2019-05-06T05:42:11.900Z,5.83
2019-05-06T05:44:39.386Z,5.55
2019-05-06T05:47:06.974Z,6.53
2019-05-06T05:49:34.983Z,5.25
2019-05-06T05:52:03.397Z,8.10
2019-05-06T05:54:33.182Z,7.20
2019-05-06T05:57:02.389Z,5.20
2019-05-06T05:59:32.702Z,6.47
2019-05-06T06:02:00.063Z,8.53
2019-05-06T06:04:27.698Z,6.33
2019-05-06T06:06:55.559Z,5.58
2019-05-06T06:09:23.199Z,5.30
2019-05-06T06:11:53.003Z,5.92
2019-05-06T06:14:21.918Z,7.53
2019-05-06T06:16:49.520Z,7.80
2019-05-06T06:19:17.198Z,6.70
2019-05-06T06:21:44.815Z,7.33
2019-05-06T06:24:13.133Z,6.15
2019-05-06T06:26:42.810Z,5.75
2019-05-06T06:29:12.366Z,5.22
2019-05-06T06:31:39.727Z,4.87
2019-05-06T06:34:07.332Z,5.45
2019-05-06T06:36:35.300Z,7.25
2019-05-06T06:39:04.597Z,7.08
2019-05-06T06:41:32.354Z,6.22
2019-05-06T06:44:02.123Z,4.97
2019-05-06T06:46:29.260Z,4.28
2019-05-06T06:48:57.191Z,6.70
2019-05-06T06:51:24.959Z,5.50
2019-05-06T06:53:52.959Z,6.17
2019-05-06T06:56:22.019Z,4.70
2019-05-06T06:58:49.775Z,5.08
2019-05-06T07:01:17.412Z,3.15
2019-05-06T07:03:45.427Z,4.20
2019-05-06T07:06:13.042Z,4.03
2019-05-06T07:08:42.645Z,5.50
2019-05-06T07:11:10.316Z,4.33
2019-05-06T07:13:42.027Z,2.77
2019-05-06T07:16:09.637Z,4.35
2019-05-06T07:18:37.260Z,5.15
2019-05-06T07:21:06.205Z,3.90
2019-05-06T07:23:34.129Z,6.50
2019-05-06T07:26:03.091Z,4.40
2019-05-06T07:28:32.621Z,4.95
2019-05-06T07:31:14.943Z,4.40
2019-05-06T07:33:29.945Z,4.60
2019-05-06T07:35:57.576Z,3.20
2019-05-06T07:38:25.219Z,4.33
2019-05-06T07:40:53.022Z,5.55
2019-05-06T07:43:22.013Z,3.92
2019-05-06T07:45:49.625Z,4.10
2019-05-06T07:48:17.241Z,4.62
2019-05-06T07:50:44.832Z,4.45
2019-05-06T07:53:13.301Z,5.05
2019-05-06T07:55:42.454Z,4.25
2019-05-06T07:58:10.573Z,3.10
2019-05-06T08:00:38.161Z,3.25
2019-05-06T08:03:05.774Z,4.30
2019-05-06T08:05:34.073Z,4.37
2019-05-06T08:08:03.523Z,5.28
2019-05-06T08:10:33.076Z,7.72
2019-05-06T08:13:02.774Z,4.37
2019-05-06T08:15:32.313Z,2.77
2019-05-06T08:17:59.509Z,3.95
2019-05-06T08:20:27.527Z,5.10
2019-05-06T08:22:56.620Z,3.25
2019-05-06T08:25:24.614Z,4.05
2019-05-06T08:27:53.215Z,13.10
2019-05-06T08:30:22.903Z,3.45
2019-05-06T08:32:52.728Z,3.08
2019-05-06T08:35:20.217Z,4.28
2019-05-06T08:37:48.502Z,5.60
2019-05-06T08:40:16.610Z,5.58
2019-05-06T08:42:44.236Z,3.27
2019-05-06T08:45:12.820Z,2.42
2019-05-06T08:47:42.620Z,3.15
2019-05-06T08:50:10.095Z,2.60
2019-05-06T08:52:37.887Z,2.58
2019-05-06T08:55:05.985Z,5.58
2019-05-06T08:57:33.925Z,3.25
2019-05-06T09:00:03.392Z,5.10
2019-05-06T09:02:32.422Z,2.70
2019-05-06T09:05:02.905Z,3.95
2019-05-06T09:07:32.005Z,2.33
2019-05-06T09:10:02.313Z,2.98
2019-05-06T09:12:32.811Z,2.55
2019-05-06T09:14:59.813Z,3.62
2019-05-06T09:17:27.397Z,3.12
2019-05-06T09:19:55.010Z,2.95
2019-05-06T09:22:23.530Z,4.08
2019-05-06T09:24:53.065Z,6.17
2019-05-06T09:27:22.567Z,2.98
2019-05-06T09:29:52.177Z,2.67
2019-05-06T09:32:19.669Z,3.05
2019-05-06T09:34:47.642Z,3.37
2019-05-06T09:37:15.220Z,4.05
2019-05-06T09:39:43.401Z,5.53
2019-05-06T09:42:12.839Z,5.78
2019-05-06T09:44:42.776Z,3.67
2019-05-06T09:47:12.697Z,4.72
2019-05-06T09:49:42.354Z,4.85
2019-05-06T09:52:09.583Z,3.02
2019-05-06T09:54:38.486Z,4.08
2019-05-06T09:57:06.025Z,4.70
2019-05-06T09:59:33.629Z,4.47
2019-05-06T10:02:01.213Z,3.05
2019-05-06T10:04:28.850Z,4.65
2019-05-06T10:06:59.949Z,5.08
2019-05-06T10:09:26.094Z,4.28
2019-05-06T10:11:53.697Z,3.62
2019-05-06T10:14:23.244Z,4.70
2019-05-06T10:16:52.383Z,3.47
2019-05-06T10:19:22.401Z,3.60
2019-05-06T10:21:49.368Z,4.90
2019-05-06T10:24:17.013Z,4.42
2019-05-06T10:26:44.627Z,5.03
2019-05-06T10:29:12.856Z,2.20
2019-05-06T10:31:40.533Z,3.72
2019-05-06T10:34:08.170Z,4.92
2019-05-06T10:36:53.190Z,7.33
2019-05-06T10:39:22.789Z,2.75
2019-05-06T10:41:50.961Z,3.77
2019-05-06T10:44:29.674Z,6.87
2019-05-06T10:46:57.034Z,5.95
2019-05-06T10:49:24.669Z,4.53
2019-05-06T10:51:53.004Z,3.02
2019-05-06T10:54:22.770Z,5.42
2019-05-06T10:56:54.638Z,6.22
2019-05-06T10:59:21.932Z,3.05
2019-05-06T11:01:49.246Z,6.25
2019-05-06T11:04:17.198Z,2.40
2019-05-06T11:06:44.778Z,6.47
2019-05-06T11:09:13.534Z,6.92
2019-05-06T11:11:42.733Z,2.92
2019-05-06T11:14:12.656Z,4.33
2019-05-06T11:16:39.757Z,3.25
2019-05-06T11:19:07.417Z,6.78
2019-05-06T11:21:35.455Z,5.47
2019-05-06T11:24:06.019Z,3.60
2019-05-06T11:26:32.337Z,3.72
2019-05-06T11:28:59.914Z,4.83
2019-05-06T11:31:27.548Z,3.52
2019-05-06T11:33:55.135Z,15.58
2019-05-06T11:36:23.041Z,9.03
2019-05-06T11:38:52.270Z,8.33
2019-05-06T11:41:20.271Z,5.58
2019-05-06T11:43:47.877Z,5.37
2019-05-06T11:46:15.511Z,5.05
2019-05-06T11:48:43.371Z,7.37
2019-05-06T11:51:12.755Z,4.03
2019-05-06T11:53:40.536Z,4.78
2019-05-06T11:56:08.130Z,3.50
2019-05-06T11:58:35.804Z,5.55
2019-05-06T12:01:03.511Z,4.22
2019-05-06T12:03:32.670Z,3.95
2019-05-06T12:06:00.631Z,6.20
2019-05-06T12:08:28.443Z,4.33
2019-05-06T12:10:56.047Z,4.53
2019-05-06T12:13:23.732Z,5.85
2019-05-06T12:15:52.523Z,4.25
2019-05-06T12:18:22.934Z,4.17
2019-05-06T12:20:52.617Z,6.83
2019-05-06T12:23:19.436Z,2.55
2019-05-06T12:25:47.180Z,5.00
2019-05-06T12:28:17.480Z,3.92
2019-05-06T12:30:44.352Z,7.72
2019-05-06T12:33:13.036Z,4.75
2019-05-06T12:35:42.810Z,5.37
2019-05-06T12:38:23.111Z,6.20
2019-05-06T12:40:39.790Z,8.03
2019-05-06T12:43:07.643Z,3.95
2019-05-06T12:45:35.427Z,5.72
2019-05-06T12:48:03.234Z,6.42
2019-05-06T12:50:33.041Z,4.37
2019-05-06T12:53:00.208Z,6.45
2019-05-06T12:55:27.811Z,4.40
2019-05-06T12:57:55.435Z,3.95
2019-05-06T13:00:23.483Z,6.05
2019-05-06T13:02:53.039Z,5.78
2019-05-06T13:05:20.838Z,6.30
2019-05-06T13:07:48.459Z,5.15
2019-05-06T13:10:17.187Z,6.83
2019-05-06T13:12:44.842Z,8.18
2019-05-06T13:15:13.379Z,5.53
2019-05-06T13:17:42.513Z,3.47
2019-05-06T13:20:14.698Z,8.78
2019-05-06T13:22:40.409Z,6.15
2019-05-06T13:25:08.004Z,5.83
2019-05-06T13:27:35.757Z,6.25
2019-05-06T13:30:05.298Z,4.92
2019-05-06T13:32:32.914Z,8.75
2019-05-06T13:35:02.837Z,11.33
2019-05-06T13:37:33.597Z,15.13
2019-05-06T13:40:07.212Z,9.53
2019-05-06T13:42:34.791Z,6.80
2019-05-06T13:45:03.043Z,9.15
2019-05-06T13:47:32.233Z,7.97
2019-05-06T13:49:59.953Z,7.97
2019-05-06T13:52:27.684Z,13.15
2019-05-06T13:54:55.266Z,8.45
2019-05-06T13:57:23.021Z,11.30
2019-05-06T13:59:53.231Z,9.65
2019-05-06T14:02:21.875Z,7.28
2019-05-06T14:04:52.472Z,8.98
2019-05-06T14:07:19.106Z,8.55
2019-05-06T14:09:47.177Z,11.88
2019-05-06T14:12:14.961Z,8.43
2019-05-06T14:14:43.169Z,9.10
2019-05-06T14:17:12.800Z,11.70
2019-05-06T14:19:42.605Z,7.37
2019-05-06T14:22:09.714Z,9.58
2019-05-06T14:24:37.620Z,10.00
2019-05-06T14:27:05.205Z,8.73
2019-05-06T14:29:33.051Z,10.00
2019-05-06T14:32:00.719Z,8.10
2019-05-06T14:34:28.337Z,9.58
2019-05-06T14:36:56.365Z,8.48
2019-05-06T14:39:24.074Z,10.88
2019-05-06T14:41:53.495Z,4.60
2019-05-06T14:44:23.247Z,8.13
2019-05-06T14:46:50.266Z,6.45
2019-05-06T14:49:18.231Z,8.23
2019-05-06T14:51:45.849Z,4.70
2019-05-06T14:54:14.783Z,7.22
2019-05-06T14:56:42.835Z,8.43
2019-05-06T14:59:12.453Z,7.90
2019-05-06T15:01:39.709Z,9.28
2019-05-06T15:04:07.320Z,11.28
2019-05-06T15:06:34.927Z,9.88
2019-05-06T15:09:04.301Z,6.35
2019-05-06T15:11:32.461Z,6.25
2019-05-06T15:14:03.525Z,4.95
2019-05-06T15:16:30.244Z,7.33
2019-05-06T15:18:57.929Z,7.60
2019-05-06T15:21:36.988Z,6.33
2019-05-06T15:23:55.467Z,7.45
2019-05-06T15:26:23.076Z,5.15
2019-05-06T15:28:52.851Z,7.62
2019-05-06T15:31:22.782Z,5.28
2019-05-06T15:33:49.741Z,6.33
2019-05-06T15:36:17.460Z,5.15
2019-05-06T15:38:45.698Z,11.70
2019-05-06T15:41:13.297Z,7.47
2019-05-06T15:43:41.199Z,6.40
2019-05-06T15:46:08.824Z,8.30
2019-05-06T15:48:36.396Z,6.83
2019-05-06T15:51:04.017Z,4.85
2019-05-06T15:53:32.862Z,8.78
2019-05-06T15:56:00.910Z,4.97
2019-05-06T15:58:28.502Z,6.33
2019-05-06T16:00:56.119Z,6.30
2019-05-06T16:03:23.751Z,9.65
2019-05-06T16:05:54.685Z,6.80
2019-05-06T16:08:24.255Z,4.65
2019-05-06T16:10:55.149Z,7.92
2019-05-06T16:13:19.601Z,9.58
2019-05-06T16:15:47.210Z,7.95
2019-05-06T16:18:14.802Z,15.20
2019-05-06T16:20:42.427Z,12.85
2019-05-06T16:23:10.049Z,14.58
2019-05-06T16:25:37.690Z,9.83
2019-05-06T16:28:05.290Z,10.03
2019-05-06T16:30:33.915Z,10.25
2019-05-06T16:33:04.101Z,9.55
2019-05-06T16:35:32.299Z,13.18
2019-05-06T16:38:02.236Z,8.58
2019-05-06T16:40:29.854Z,9.88
2019-05-06T16:42:57.436Z,10.63
2019-05-06T16:45:25.494Z,11.18
2019-05-06T16:47:53.076Z,16.45
2019-05-06T16:50:22.552Z,12.73
2019-05-06T16:52:52.703Z,10.45
2019-05-06T16:55:19.717Z,10.98
2019-05-06T16:57:47.533Z,11.93
2019-05-06T17:00:15.121Z,10.95
2019-05-06T17:02:56.461Z,12.78
2019-05-06T17:05:14.968Z,11.63
2019-05-06T17:07:42.280Z,11.22
2019-05-06T17:10:12.790Z,13.43
2019-05-06T17:12:40.406Z,12.95
2019-05-06T17:15:08.010Z,10.65
2019-05-06T17:17:43.507Z,17.07
2019-05-06T17:20:04.919Z,9.73
2019-05-06T17:22:33.189Z,9.28
2019-05-06T17:25:02.417Z,9.35
2019-05-06T17:27:31.912Z,10.70
2019-05-06T17:29:59.577Z,11.30
2019-05-06T17:32:27.214Z,12.47
2019-05-06T17:34:57.477Z,10.70
2019-05-06T17:37:24.073Z,10.78
2019-05-06T17:40:06.677Z,10.38
2019-05-06T17:42:22.629Z,12.82
2019-05-06T17:44:50.328Z,10.05
2019-05-06T17:47:17.948Z,10.85
2019-05-06T17:49:45.537Z,11.95
2019-05-06T17:52:13.362Z,10.95
2019-05-06T17:54:42.903Z,12.05
2019-05-06T17:57:12.310Z,8.30
2019-05-06T17:59:42.026Z,12.03
2019-05-06T18:02:09.694Z,9.30
2019-05-06T18:04:37.318Z,12.03
2019-05-06T18:07:04.933Z,11.20
2019-05-06T18:09:33.450Z,11.63
2019-05-06T18:12:03.129Z,10.68
2019-05-06T18:14:33.130Z,15.48
2019-05-06T18:17:00.196Z,9.88
2019-05-06T18:19:27.804Z,13.00
2019-05-06T18:21:55.696Z,10.50
2019-05-06T18:24:23.368Z,15.50
2019-05-06T18:26:52.886Z,12.00
2019-05-06T18:29:22.214Z,11.33
2019-05-06T18:31:52.415Z,13.10
2019-05-06T18:34:19.655Z,13.93
2019-05-06T18:36:47.345Z,13.43
2019-05-06T18:39:15.333Z,12.35
2019-05-06T18:41:43.328Z,11.78
2019-05-06T18:44:12.025Z,14.68
2019-05-06T18:46:41.648Z,12.73
2019-05-06T18:49:09.493Z,11.00
2019-05-06T18:51:37.298Z,15.32
2019-05-06T18:54:05.200Z,12.60
2019-05-06T18:56:32.793Z,14.53
2019-05-06T18:59:02.702Z,13.38
2019-05-06T19:01:29.669Z,10.95
2019-05-06T19:03:57.290Z,11.03
2019-05-06T19:06:25.017Z,14.58
2019-05-06T19:08:52.858Z,15.72
2019-05-06T19:11:22.177Z,13.68
2019-05-06T19:13:49.970Z,16.10
2019-05-06T19:16:17.565Z,13.13
2019-05-06T19:18:45.501Z,12.28
2019-05-06T19:21:13.566Z,10.82
2019-05-06T19:23:42.756Z,13.48
2019-05-06T19:26:12.389Z,14.13
2019-05-06T19:28:39.765Z,16.20
2019-05-06T19:31:07.626Z,12.35
2019-05-06T19:33:35.583Z,13.48
2019-05-06T19:36:03.559Z,16.82
2019-05-06T19:38:33.513Z,17.50
2019-05-06T19:41:02.076Z,11.28
2019-05-06T19:43:30.147Z,13.10
2019-05-06T19:45:58.357Z,15.30
2019-05-06T19:48:25.955Z,13.85
2019-05-06T19:50:53.541Z,12.43
2019-05-06T19:53:21.152Z,12.37
2019-05-06T19:55:48.792Z,15.25
2019-05-06T19:58:16.340Z,14.98
2019-05-06T20:00:44.645Z,14.87
2019-05-06T20:03:12.389Z,16.10
2019-05-06T20:05:40.226Z,12.07
2019-05-06T20:08:07.884Z,12.98
2019-05-06T20:10:35.506Z,14.03
2019-05-06T20:13:05.426Z,13.35
2019-05-06T20:15:32.366Z,15.23
2019-05-06T20:18:00.342Z,13.38
2019-05-06T20:20:27.965Z,14.28
2019-05-06T20:22:55.973Z,17.25
2019-05-06T20:25:23.591Z,13.40
2019-05-06T20:27:52.643Z,17.50
2019-05-06T20:30:21.912Z,15.80
2019-05-06T20:32:51.983Z,19.37
2019-05-06T20:35:19.252Z,17.42
2019-05-06T20:37:47.203Z,15.20
2019-05-06T20:40:15.314Z,15.72
2019-05-06T20:42:42.997Z,14.60
2019-05-06T20:45:12.698Z,15.85
2019-05-06T20:47:39.913Z,18.75
2019-05-06T20:50:07.792Z,13.20
2019-05-06T20:52:35.685Z,15.05
2019-05-06T20:55:12.569Z,16.87
2019-05-06T20:57:33.582Z,15.72
2019-05-06T21:00:03.451Z,14.68
2019-05-06T21:02:32.594Z,14.50
2019-05-06T21:05:02.082Z,16.97
2019-05-06T21:07:29.361Z,15.25
2019-05-06T21:09:58.089Z,16.40
2019-05-06T21:12:28.547Z,18.77
2019-05-06T21:14:56.155Z,17.27
2019-05-06T21:17:23.793Z,22.17
2019-05-06T21:19:51.945Z,17.02
2019-05-06T21:22:19.612Z,17.95
2019-05-06T21:24:47.213Z,19.32
2019-05-06T21:27:14.833Z,26.68
2019-05-06T21:29:42.423Z,17.82
2019-05-06T21:32:10.034Z,15.50
2019-05-06T21:34:37.612Z,17.67
2019-05-06T21:37:05.237Z,16.67
2019-05-06T21:39:33.020Z,16.35
2019-05-06T21:42:00.705Z,18.32
2019-05-06T21:44:28.280Z,13.25
2019-05-06T21:46:55.898Z,15.38
2019-05-06T21:49:23.778Z,17.42
2019-05-06T21:51:51.788Z,15.18
2019-05-06T21:54:19.500Z,14.45
2019-05-06T21:56:47.511Z,18.15
2019-05-06T21:59:15.479Z,19.95
2019-05-06T22:01:43.394Z,18.00
2019-05-06T22:04:12.800Z,14.87
2019-05-06T22:06:42.906Z,14.95
2019-05-06T22:09:09.697Z,18.60
2019-05-06T22:11:37.309Z,15.70
2019-05-06T22:14:05.182Z,14.58
2019-05-06T22:16:32.816Z,18.95
2019-05-06T22:19:02.406Z,20.02
2019-05-06T22:21:32.051Z,15.40
2019-05-06T22:23:59.317Z,19.87
2019-05-06T22:26:28.573Z,15.32
2019-05-06T22:28:56.177Z,17.95
2019-05-06T22:31:24.326Z,14.50
2019-05-06T22:33:52.603Z,16.95
2019-05-06T22:36:22.483Z,16.25
2019-05-06T22:38:49.481Z,19.12
2019-05-06T22:41:17.076Z,17.00
2019-05-06T22:43:44.693Z,15.95
2019-05-06T22:46:12.464Z,14.55
2019-05-06T22:48:40.221Z,18.73
2019-05-06T22:51:08.217Z,15.85
2019-05-06T22:53:36.241Z,17.17
2019-05-06T22:56:04.202Z,15.23
2019-05-06T22:58:34.373Z,20.50
2019-05-06T23:01:04.436Z,18.70
2019-05-06T23:03:31.691Z,15.25
2019-05-06T23:05:59.777Z,15.63
2019-05-06T23:08:27.385Z,20.55
2019-05-06T23:10:55.017Z,19.30
2019-05-06T23:13:23.174Z,14.28
2019-05-06T23:15:52.370Z,15.15
2019-05-06T23:18:22.329Z,14.47
2019-05-06T23:20:49.666Z,13.00
2019-05-06T23:23:17.313Z,14.70
2019-05-06T23:25:44.885Z,14.80
2019-05-06T23:28:12.496Z,15.75
2019-05-06T23:30:40.090Z,14.47
2019-05-06T23:33:07.723Z,14.75
2019-05-06T23:35:35.333Z,19.40
2019-05-06T23:38:39.822Z,17.07
2019-05-06T23:41:44.084Z,15.10
2019-05-06T23:44:48.621Z,18.87
2019-05-06T23:47:53.211Z,12.03
2019-05-06T23:50:57.477Z,18.67
2019-05-06T23:54:03.142Z,13.00
2019-05-06T23:56:39.557Z,12.78
2019-05-06T23:59:08.742Z,15.05
